sensor_id;sensor_type;location;lat;lon;timestamp;pressure;altitude;pressure_sealevel;temperature;humidity
31538;BME280;18147;51.952;6.146;2022-09-12T00:02:23;101685.06;;;12.99;100.00
31538;BME280;18147;51.952;6.146;2022-09-12T00:04:49;101686.19;;;12.95;100.00
31538;BME280;18147;51.952;6.146;2022-09-12T00:07:15;101683.72;;;12.92;100.00
31538;BME280;18147;51.952;6.146;2022-09-12T00:09:40;101684.84;;;12.88;100.00
31538;BME280;18147;51.952;6.146;2022-09-12T00:12:06;101685.00;;;12.85;100.00
31538;BME280;18147;51.952;6.146;2022-09-12T00:14:34;101681.94;;;12.77;100.00
31538;BME280;18147;51.952;6.146;2022-09-12T00:17:05;101677.28;;;12.80;100.00
31538;BME280;18147;51.952;6.146;2022-09-12T00:19:31;101681.75;;;12.80;100.00
31538;BME280;18147;51.952;6.146;2022-09-12T00:21:56;101679.97;;;12.80;100.00
31538;BME280;18147;51.952;6.146;2022-09-12T00:24:22;101685.66;;;12.74;100.00
31538;BME280;18147;51.952;6.146;2022-09-12T00:26:47;101678.03;;;12.52;100.00
31538;BME280;18147;51.952;6.146;2022-09-12T00:29:18;101682.06;;;12.59;100.00
31538;BME280;18147;51.952;6.146;2022-09-12T00:31:45;101675.59;;;12.63;100.00
31538;BME280;18147;51.952;6.146;2022-09-12T00:34:10;101667.75;;;12.60;100.00
31538;BME280;18147;51.952;6.146;2022-09-12T00:36:37;101662.84;;;12.53;100.00
31538;BME280;18147;51.952;6.146;2022-09-12T00:39:06;101663.47;;;12.42;100.00
31538;BME280;18147;51.952;6.146;2022-09-12T00:41:36;101657.94;;;12.29;100.00
31538;BME280;18147;51.952;6.146;2022-09-12T00:46:43;101667.97;;;12.26;100.00
31538;BME280;18147;51.952;6.146;2022-09-12T00:49:29;101669.44;;;12.31;100.00
31538;BME280;18147;51.952;6.146;2022-09-12T00:52:10;101666.56;;;12.34;100.00
31538;BME280;18147;51.952;6.146;2022-09-12T00:54:50;101662.00;;;12.36;100.00
31538;BME280;18147;51.952;6.146;2022-09-12T00:57:20;101659.50;;;12.33;100.00
31538;BME280;18147;51.952;6.146;2022-09-12T00:59:55;101655.53;;;12.25;100.00
31538;BME280;18147;51.952;6.146;2022-09-12T01:02:23;101653.06;;;12.06;100.00
31538;BME280;18147;51.952;6.146;2022-09-12T01:04:49;101653.72;;;12.09;100.00
31538;BME280;18147;51.952;6.146;2022-09-12T01:07:15;101658.31;;;11.91;100.00
31538;BME280;18147;51.952;6.146;2022-09-12T01:09:43;101647.97;;;12.01;100.00
31538;BME280;18147;51.952;6.146;2022-09-12T01:12:13;101647.88;;;12.03;100.00
31538;BME280;18147;51.952;6.146;2022-09-12T01:14:39;101646.59;;;12.10;100.00
31538;BME280;18147;51.952;6.146;2022-09-12T01:17:04;101649.34;;;12.08;100.00
31538;BME280;18147;51.952;6.146;2022-09-12T01:26:05;101657.22;;;11.96;100.00
31538;BME280;18147;51.952;6.146;2022-09-12T01:29:01;101647.38;;;11.96;100.00
31538;BME280;18147;51.952;6.146;2022-09-12T01:34:25;101640.63;;;11.89;100.00
31538;BME280;18147;51.952;6.146;2022-09-12T01:42:31;101636.44;;;11.85;100.00
31538;BME280;18147;51.952;6.146;2022-09-12T01:46:04;101629.50;;;11.81;100.00
31538;BME280;18147;51.952;6.146;2022-09-12T01:48:10;101626.22;;;11.76;100.00
31538;BME280;18147;51.952;6.146;2022-09-12T01:50:44;101626.53;;;11.70;100.00
31538;BME280;18147;51.952;6.146;2022-09-12T01:53:25;101612.00;;;11.75;100.00
31538;BME280;18147;51.952;6.146;2022-09-12T01:56:25;101607.56;;;11.74;100.00
31538;BME280;18147;51.952;6.146;2022-09-12T01:59:20;101606.13;;;11.68;100.00
31538;BME280;18147;51.952;6.146;2022-09-12T02:02:01;101597.44;;;11.65;100.00
31538;BME280;18147;51.952;6.146;2022-09-12T02:04:56;101595.69;;;11.64;100.00
31538;BME280;18147;51.952;6.146;2022-09-12T02:07:26;101596.47;;;11.66;100.00
31538;BME280;18147;51.952;6.146;2022-09-12T02:09:58;101582.88;;;11.55;100.00
31538;BME280;18147;51.952;6.146;2022-09-12T02:12:41;101588.28;;;11.53;100.00
31538;BME280;18147;51.952;6.146;2022-09-12T02:15:17;101576.38;;;11.59;100.00
31538;BME280;18147;51.952;6.146;2022-09-12T02:17:49;101585.78;;;11.66;100.00
31538;BME280;18147;51.952;6.146;2022-09-12T02:20:22;101577.84;;;11.64;100.00
31538;BME280;18147;51.952;6.146;2022-09-12T02:22:49;101572.94;;;11.73;100.00
31538;BME280;18147;51.952;6.146;2022-09-12T02:25:19;101574.25;;;11.65;100.00
31538;BME280;18147;51.952;6.146;2022-09-12T02:27:49;101574.66;;;11.42;100.00
31538;BME280;18147;51.952;6.146;2022-09-12T02:30:16;101572.94;;;11.41;100.00
31538;BME280;18147;51.952;6.146;2022-09-12T02:32:59;101575.41;;;11.28;100.00
31538;BME280;18147;51.952;6.146;2022-09-12T02:35:39;101575.50;;;11.43;100.00
31538;BME280;18147;51.952;6.146;2022-09-12T02:40:42;101583.03;;;11.67;100.00
31538;BME280;18147;51.952;6.146;2022-09-12T02:43:10;101582.06;;;11.68;100.00
31538;BME280;18147;51.952;6.146;2022-09-12T02:45:36;101582.50;;;11.45;100.00
31538;BME280;18147;51.952;6.146;2022-09-12T02:48:23;101574.13;;;11.35;100.00
31538;BME280;18147;51.952;6.146;2022-09-12T02:50:50;101581.97;;;11.38;100.00
31538;BME280;18147;51.952;6.146;2022-09-12T02:53:26;101574.13;;;11.35;100.00
31538;BME280;18147;51.952;6.146;2022-09-12T02:55:53;101581.97;;;11.38;100.00
31538;BME280;18147;51.952;6.146;2022-09-12T02:58:25;101580.75;;;11.44;100.00
31538;BME280;18147;51.952;6.146;2022-09-12T03:01:17;101577.31;;;11.42;100.00
31538;BME280;18147;51.952;6.146;2022-09-12T03:07:02;101575.50;;;11.27;100.00
31538;BME280;18147;51.952;6.146;2022-09-12T03:09:54;101573.50;;;11.14;100.00
31538;BME280;18147;51.952;6.146;2022-09-12T03:13:14;101570.91;;;11.13;100.00
31538;BME280;18147;51.952;6.146;2022-09-12T03:19:05;101561.63;;;11.20;100.00
31538;BME280;18147;51.952;6.146;2022-09-12T03:29:57;101546.44;;;11.05;100.00
31538;BME280;18147;51.952;6.146;2022-09-12T03:32:46;101548.34;;;11.19;100.00
31538;BME280;18147;51.952;6.146;2022-09-12T03:35:13;101551.31;;;11.30;100.00
31538;BME280;18147;51.952;6.146;2022-09-12T03:37:39;101559.22;;;11.31;100.00
31538;BME280;18147;51.952;6.146;2022-09-12T03:40:06;101550.34;;;11.31;100.00
31538;BME280;18147;51.952;6.146;2022-09-12T03:42:31;101554.38;;;11.22;100.00
31538;BME280;18147;51.952;6.146;2022-09-12T03:44:57;101549.38;;;11.00;100.00
31538;BME280;18147;51.952;6.146;2022-09-12T03:47:22;101546.94;;;10.96;100.00
31538;BME280;18147;51.952;6.146;2022-09-12T03:49:48;101549.66;;;10.94;100.00
31538;BME280;18147;51.952;6.146;2022-09-12T03:52:13;101549.00;;;10.91;100.00
31538;BME280;18147;51.952;6.146;2022-09-12T03:54:39;101551.72;;;10.89;100.00
31538;BME280;18147;51.952;6.146;2022-09-12T03:57:04;101547.09;;;10.93;100.00
31538;BME280;18147;51.952;6.146;2022-09-12T03:59:31;101542.22;;;11.01;100.00
31538;BME280;18147;51.952;6.146;2022-09-12T04:01:58;101537.75;;;11.01;100.00
31538;BME280;18147;51.952;6.146;2022-09-12T04:04:24;101538.50;;;11.03;100.00
31538;BME280;18147;51.952;6.146;2022-09-12T04:06:49;101536.25;;;10.96;100.00
31538;BME280;18147;51.952;6.146;2022-09-12T04:09:15;101538.06;;;10.95;100.00
31538;BME280;18147;51.952;6.146;2022-09-12T04:11:43;101531.34;;;11.04;100.00
31538;BME280;18147;51.952;6.146;2022-09-12T04:14:09;101532.06;;;11.07;100.00
31538;BME280;18147;51.952;6.146;2022-09-12T04:16:35;101535.94;;;11.18;100.00
31538;BME280;18147;51.952;6.146;2022-09-12T04:19:00;101532.16;;;11.06;100.00
31538;BME280;18147;51.952;6.146;2022-09-12T04:21:26;101533.09;;;11.05;100.00
31538;BME280;18147;51.952;6.146;2022-09-12T04:23:51;101534.84;;;10.88;100.00
31538;BME280;18147;51.952;6.146;2022-09-12T04:26:18;101527.03;;;10.85;100.00
31538;BME280;18147;51.952;6.146;2022-09-12T04:28:45;101525.72;;;10.77;100.00
31538;BME280;18147;51.952;6.146;2022-09-12T04:31:13;101525.38;;;10.83;100.00
31538;BME280;18147;51.952;6.146;2022-09-12T04:33:41;101524.75;;;10.78;100.00
31538;BME280;18147;51.952;6.146;2022-09-12T04:36:10;101530.34;;;10.73;100.00
31538;BME280;18147;51.952;6.146;2022-09-12T04:38:37;101525.13;;;10.87;100.00
31538;BME280;18147;51.952;6.146;2022-09-12T04:41:13;101517.22;;;10.86;100.00
31538;BME280;18147;51.952;6.146;2022-09-12T04:43:39;101516.97;;;10.91;100.00
31538;BME280;18147;51.952;6.146;2022-09-12T04:46:06;101518.44;;;10.96;100.00
31538;BME280;18147;51.952;6.146;2022-09-12T04:48:31;101523.53;;;11.01;100.00
31538;BME280;18147;51.952;6.146;2022-09-12T04:51:07;101522.69;;;11.00;100.00
31538;BME280;18147;51.952;6.146;2022-09-12T04:53:33;101512.50;;;11.07;100.00
31538;BME280;18147;51.952;6.146;2022-09-12T04:56:03;101511.16;;;11.15;100.00
31538;BME280;18147;51.952;6.146;2022-09-12T04:58:30;101511.84;;;11.19;100.00
31538;BME280;18147;51.952;6.146;2022-09-12T05:00:55;101511.31;;;11.28;100.00
31538;BME280;18147;51.952;6.146;2022-09-12T05:03:21;101510.97;;;11.34;100.00
31538;BME280;18147;51.952;6.146;2022-09-12T05:05:49;101516.50;;;11.31;100.00
31538;BME280;18147;51.952;6.146;2022-09-12T05:08:14;101517.53;;;11.29;100.00
31538;BME280;18147;51.952;6.146;2022-09-12T05:10:43;101521.66;;;11.19;100.00
31538;BME280;18147;51.952;6.146;2022-09-12T05:13:11;101518.31;;;11.31;100.00
31538;BME280;18147;51.952;6.146;2022-09-12T05:15:36;101521.41;;;11.39;100.00
31538;BME280;18147;51.952;6.146;2022-09-12T05:18:02;101522.81;;;11.46;100.00
31538;BME280;18147;51.952;6.146;2022-09-12T05:20:28;101512.88;;;11.48;100.00
31538;BME280;18147;51.952;6.146;2022-09-12T05:22:53;101522.19;;;11.57;100.00
31538;BME280;18147;51.952;6.146;2022-09-12T05:25:22;101515.03;;;11.73;100.00
31538;BME280;18147;51.952;6.146;2022-09-12T05:27:51;101521.81;;;11.79;100.00
31538;BME280;18147;51.952;6.146;2022-09-12T05:30:16;101516.94;;;11.87;100.00
31538;BME280;18147;51.952;6.146;2022-09-12T05:32:42;101511.81;;;11.98;100.00
31538;BME280;18147;51.952;6.146;2022-09-12T05:35:07;101517.66;;;12.05;100.00
31538;BME280;18147;51.952;6.146;2022-09-12T05:37:33;101512.28;;;12.21;100.00
31538;BME280;18147;51.952;6.146;2022-09-12T05:39:58;101507.97;;;12.18;100.00
31538;BME280;18147;51.952;6.146;2022-09-12T05:42:24;101512.03;;;12.25;100.00
31538;BME280;18147;51.952;6.146;2022-09-12T05:44:49;101514.81;;;12.38;100.00
31538;BME280;18147;51.952;6.146;2022-09-12T05:47:15;101516.06;;;12.47;100.00
31538;BME280;18147;51.952;6.146;2022-09-12T05:49:50;101521.53;;;12.45;100.00
31538;BME280;18147;51.952;6.146;2022-09-12T05:52:19;101521.22;;;12.50;100.00
31538;BME280;18147;51.952;6.146;2022-09-12T05:54:45;101519.50;;;12.49;100.00
31538;BME280;18147;51.952;6.146;2022-09-12T05:57:12;101527.94;;;12.57;100.00
31538;BME280;18147;51.952;6.146;2022-09-12T05:59:37;101527.97;;;12.71;100.00
31538;BME280;18147;51.952;6.146;2022-09-12T06:02:05;101533.03;;;12.76;100.00
31538;BME280;18147;51.952;6.146;2022-09-12T06:04:30;101535.03;;;12.86;100.00
31538;BME280;18147;51.952;6.146;2022-09-12T06:06:56;101541.63;;;12.95;100.00
31538;BME280;18147;51.952;6.146;2022-09-12T06:09:21;101521.56;;;13.02;100.00
31538;BME280;18147;51.952;6.146;2022-09-12T06:11:49;101528.53;;;13.05;100.00
31538;BME280;18147;51.952;6.146;2022-09-12T06:14:16;101524.22;;;13.16;100.00
31538;BME280;18147;51.952;6.146;2022-09-12T06:16:45;101520.13;;;13.25;100.00
31538;BME280;18147;51.952;6.146;2022-09-12T06:19:17;101518.69;;;13.34;100.00
31538;BME280;18147;51.952;6.146;2022-09-12T06:21:46;101526.03;;;13.44;100.00
31538;BME280;18147;51.952;6.146;2022-09-12T06:24:14;101520.84;;;13.56;100.00
31538;BME280;18147;51.952;6.146;2022-09-12T06:26:39;101520.72;;;13.71;100.00
31538;BME280;18147;51.952;6.146;2022-09-12T06:29:05;101523.28;;;13.73;100.00
31538;BME280;18147;51.952;6.146;2022-09-12T06:31:33;101519.16;;;13.82;100.00
31538;BME280;18147;51.952;6.146;2022-09-12T06:34:09;101525.25;;;14.11;100.00
31538;BME280;18147;51.952;6.146;2022-09-12T06:36:38;101518.50;;;14.18;100.00
31538;BME280;18147;51.952;6.146;2022-09-12T06:39:10;101518.25;;;14.08;100.00
31538;BME280;18147;51.952;6.146;2022-09-12T06:41:36;101514.97;;;14.30;100.00
31538;BME280;18147;51.952;6.146;2022-09-12T06:44:05;101515.56;;;14.48;100.00
31538;BME280;18147;51.952;6.146;2022-09-12T06:46:31;101519.75;;;14.65;100.00
31538;BME280;18147;51.952;6.146;2022-09-12T06:48:58;101510.13;;;14.62;100.00
31538;BME280;18147;51.952;6.146;2022-09-12T06:51:26;101507.44;;;14.62;100.00
31538;BME280;18147;51.952;6.146;2022-09-12T06:53:54;101505.59;;;14.50;100.00
31538;BME280;18147;51.952;6.146;2022-09-12T06:56:23;101508.38;;;14.48;100.00
31538;BME280;18147;51.952;6.146;2022-09-12T06:58:50;101506.34;;;14.52;100.00
31538;BME280;18147;51.952;6.146;2022-09-12T07:01:24;101509.66;;;14.56;100.00
31538;BME280;18147;51.952;6.146;2022-09-12T07:03:51;101512.16;;;14.59;100.00
31538;BME280;18147;51.952;6.146;2022-09-12T07:06:19;101510.56;;;14.56;100.00
31538;BME280;18147;51.952;6.146;2022-09-12T07:08:45;101507.88;;;14.56;100.00
31538;BME280;18147;51.952;6.146;2022-09-12T07:11:21;101507.75;;;14.83;100.00
31538;BME280;18147;51.952;6.146;2022-09-12T07:13:49;101511.38;;;14.95;100.00
31538;BME280;18147;51.952;6.146;2022-09-12T07:16:15;101510.84;;;14.90;100.00
31538;BME280;18147;51.952;6.146;2022-09-12T07:18:41;101510.06;;;15.13;100.00
31538;BME280;18147;51.952;6.146;2022-09-12T07:21:09;101504.59;;;15.64;100.00
31538;BME280;18147;51.952;6.146;2022-09-12T07:23:35;101503.13;;;16.19;100.00
31538;BME280;18147;51.952;6.146;2022-09-12T07:26:03;101505.88;;;16.88;100.00
31538;BME280;18147;51.952;6.146;2022-09-12T07:28:31;101489.06;;;17.29;100.00
31538;BME280;18147;51.952;6.146;2022-09-12T07:30:57;101484.59;;;17.73;100.00
31538;BME280;18147;51.952;6.146;2022-09-12T07:33:26;101488.19;;;18.16;100.00
31538;BME280;18147;51.952;6.146;2022-09-12T07:35:52;101478.44;;;18.45;100.00
31538;BME280;18147;51.952;6.146;2022-09-12T07:38:22;101482.16;;;18.02;100.00
31538;BME280;18147;51.952;6.146;2022-09-12T07:40:48;101484.75;;;17.93;100.00
31538;BME280;18147;51.952;6.146;2022-09-12T07:43:13;101481.63;;;17.65;100.00
31538;BME280;18147;51.952;6.146;2022-09-12T07:45:38;101479.94;;;18.17;100.00
31538;BME280;18147;51.952;6.146;2022-09-12T07:48:07;101481.47;;;17.67;100.00
31538;BME280;18147;51.952;6.146;2022-09-12T07:50:35;101478.34;;;17.50;100.00
31538;BME280;18147;51.952;6.146;2022-09-12T07:53:04;101483.00;;;17.59;100.00
31538;BME280;18147;51.952;6.146;2022-09-12T07:55:30;101486.50;;;18.35;100.00
31538;BME280;18147;51.952;6.146;2022-09-12T07:57:55;101486.03;;;18.72;100.00
31538;BME280;18147;51.952;6.146;2022-09-12T08:00:21;101476.72;;;18.86;100.00
31538;BME280;18147;51.952;6.146;2022-09-12T08:02:50;101488.66;;;19.14;100.00
31538;BME280;18147;51.952;6.146;2022-09-12T08:05:17;101495.47;;;18.78;100.00
31538;BME280;18147;51.952;6.146;2022-09-12T08:07:45;101480.91;;;19.50;100.00
31538;BME280;18147;51.952;6.146;2022-09-12T08:10:11;101487.63;;;20.42;99.66
31538;BME280;18147;51.952;6.146;2022-09-12T08:12:36;101487.31;;;19.49;100.00
31538;BME280;18147;51.952;6.146;2022-09-12T08:15:05;101499.06;;;18.88;100.00
31538;BME280;18147;51.952;6.146;2022-09-12T08:17:30;101479.22;;;19.58;100.00
31538;BME280;18147;51.952;6.146;2022-09-12T08:19:56;101494.25;;;19.41;100.00
31538;BME280;18147;51.952;6.146;2022-09-12T08:22:22;101491.25;;;18.95;100.00
31538;BME280;18147;51.952;6.146;2022-09-12T08:24:48;101494.72;;;18.76;100.00
31538;BME280;18147;51.952;6.146;2022-09-12T08:27:14;101493.41;;;18.49;100.00
31538;BME280;18147;51.952;6.146;2022-09-12T08:29:40;101503.13;;;19.44;100.00
31538;BME280;18147;51.952;6.146;2022-09-12T08:32:05;101498.34;;;19.26;100.00
31538;BME280;18147;51.952;6.146;2022-09-12T08:34:31;101500.28;;;19.05;100.00
31538;BME280;18147;51.952;6.146;2022-09-12T08:36:56;101493.78;;;19.27;100.00
31538;BME280;18147;51.952;6.146;2022-09-12T08:39:22;101494.22;;;18.92;100.00
31538;BME280;18147;51.952;6.146;2022-09-12T08:41:58;101493.34;;;19.62;100.00
31538;BME280;18147;51.952;6.146;2022-09-12T08:47:42;101487.97;;;19.31;100.00
31538;BME280;18147;51.952;6.146;2022-09-12T08:50:19;101495.06;;;19.63;99.73
31538;BME280;18147;51.952;6.146;2022-09-12T08:52:58;101493.22;;;19.63;100.00
31538;BME280;18147;51.952;6.146;2022-09-12T08:55:35;101493.81;;;19.96;96.10
31538;BME280;18147;51.952;6.146;2022-09-12T08:58:15;101493.66;;;19.88;99.18
31538;BME280;18147;51.952;6.146;2022-09-12T09:03:46;101494.66;;;20.16;94.65
31538;BME280;18147;51.952;6.146;2022-09-12T09:06:24;101488.81;;;20.11;98.37
31538;BME280;18147;51.952;6.146;2022-09-12T09:09:05;101493.22;;;20.51;96.03
31538;BME280;18147;51.952;6.146;2022-09-12T09:20:06;101492.09;;;20.90;94.95
31538;BME280;18147;51.952;6.146;2022-09-12T09:22:45;101484.63;;;20.65;93.61
31538;BME280;18147;51.952;6.146;2022-09-12T09:25:20;101487.13;;;20.86;98.19
31538;BME280;18147;51.952;6.146;2022-09-12T09:27:55;101486.09;;;20.97;93.27
31538;BME280;18147;51.952;6.146;2022-09-12T09:30:21;101482.56;;;20.86;95.02
31538;BME280;18147;51.952;6.146;2022-09-12T09:32:50;101481.31;;;21.08;92.87
31538;BME280;18147;51.952;6.146;2022-09-12T09:43:52;101464.72;;;21.66;93.76
31538;BME280;18147;51.952;6.146;2022-09-12T09:46:20;101466.03;;;21.62;91.28
31538;BME280;18147;51.952;6.146;2022-09-12T09:48:50;101459.03;;;21.42;86.86
31538;BME280;18147;51.952;6.146;2022-09-12T09:51:21;101450.63;;;21.81;88.27
31538;BME280;18147;51.952;6.146;2022-09-12T09:54:02;101457.03;;;21.97;89.56
31538;BME280;18147;51.952;6.146;2022-09-12T09:56:40;101446.63;;;21.93;87.12
31538;BME280;18147;51.952;6.146;2022-09-12T09:59:32;101446.03;;;21.99;88.87
31538;BME280;18147;51.952;6.146;2022-09-12T10:02:19;101443.47;;;21.62;89.15
31538;BME280;18147;51.952;6.146;2022-09-12T10:04:56;101442.47;;;21.81;88.90
31538;BME280;18147;51.952;6.146;2022-09-12T10:07:23;101442.22;;;21.56;85.10
31538;BME280;18147;51.952;6.146;2022-09-12T10:12:29;101437.66;;;21.57;85.41
31538;BME280;18147;51.952;6.146;2022-09-12T10:15:00;101443.78;;;21.94;86.85
31538;BME280;18147;51.952;6.146;2022-09-12T10:17:41;101434.91;;;22.10;85.52
31538;BME280;18147;51.952;6.146;2022-09-12T10:20:32;101432.38;;;21.73;85.02
31538;BME280;18147;51.952;6.146;2022-09-12T10:23:01;101436.72;;;21.84;83.11
31538;BME280;18147;51.952;6.146;2022-09-12T10:25:30;101438.75;;;21.82;85.13
31538;BME280;18147;51.952;6.146;2022-09-12T10:27:58;101426.53;;;22.47;85.21
31538;BME280;18147;51.952;6.146;2022-09-12T10:30:26;101414.69;;;21.87;80.70
31538;BME280;18147;51.952;6.146;2022-09-12T10:33:11;101419.94;;;22.24;83.72
31538;BME280;18147;51.952;6.146;2022-09-12T10:35:47;101410.97;;;22.58;83.48
31538;BME280;18147;51.952;6.146;2022-09-12T10:38:29;101402.88;;;22.40;80.83
31538;BME280;18147;51.952;6.146;2022-09-12T10:41:06;101399.72;;;22.53;79.14
31538;BME280;18147;51.952;6.146;2022-09-12T10:43:46;101395.06;;;22.71;78.86
31538;BME280;18147;51.952;6.146;2022-09-12T10:48:47;101390.25;;;22.91;74.91
31538;BME280;18147;51.952;6.146;2022-09-12T10:53:49;101396.06;;;22.96;76.96
31538;BME280;18147;51.952;6.146;2022-09-12T10:56:19;101396.72;;;22.90;75.91
31538;BME280;18147;51.952;6.146;2022-09-12T11:05:05;101387.47;;;23.25;76.28
31538;BME280;18147;51.952;6.146;2022-09-12T11:07:40;101384.53;;;23.18;74.41
31538;BME280;18147;51.952;6.146;2022-09-12T11:24:17;101363.19;;;23.64;71.07
31538;BME280;18147;51.952;6.146;2022-09-12T11:29:58;101349.41;;;23.49;71.07
31538;BME280;18147;51.952;6.146;2022-09-12T11:35:27;101344.66;;;23.68;69.10
31538;BME280;18147;51.952;6.146;2022-09-12T11:40:50;101357.25;;;23.69;68.14
31538;BME280;18147;51.952;6.146;2022-09-12T11:46:24;101343.47;;;23.70;69.88
31538;BME280;18147;51.952;6.146;2022-09-12T11:57:14;101347.47;;;24.23;68.36
31538;BME280;18147;51.952;6.146;2022-09-12T12:02:23;101343.22;;;24.37;67.24
31538;BME280;18147;51.952;6.146;2022-09-12T12:05:21;101352.38;;;24.44;66.63
31538;BME280;18147;51.952;6.146;2022-09-12T12:07:54;101349.69;;;24.36;65.70
31538;BME280;18147;51.952;6.146;2022-09-12T12:10:49;101355.81;;;24.38;65.29
31538;BME280;18147;51.952;6.146;2022-09-12T12:13:31;101344.03;;;24.46;64.17
31538;BME280;18147;51.952;6.146;2022-09-12T12:16:12;101347.84;;;24.12;63.75
31538;BME280;18147;51.952;6.146;2022-09-12T12:18:41;101353.31;;;24.04;62.98
31538;BME280;18147;51.952;6.146;2022-09-12T12:29:11;101346.28;;;24.26;62.20
31538;BME280;18147;51.952;6.146;2022-09-12T12:36:58;101334.84;;;24.39;64.85
31538;BME280;18147;51.952;6.146;2022-09-12T12:42:04;101335.28;;;23.95;62.31
31538;BME280;18147;51.952;6.146;2022-09-12T12:47:22;101318.91;;;24.11;64.11
31538;BME280;18147;51.952;6.146;2022-09-12T12:49:59;101321.78;;;24.18;64.04
31538;BME280;18147;51.952;6.146;2022-09-12T12:52:31;101308.53;;;24.54;64.66
31538;BME280;18147;51.952;6.146;2022-09-12T12:54:59;101308.91;;;24.51;65.38
31538;BME280;18147;51.952;6.146;2022-09-12T12:57:55;101301.41;;;24.84;67.77
31538;BME280;18147;51.952;6.146;2022-09-12T13:10:49;101291.56;;;24.44;62.62
31538;BME280;18147;51.952;6.146;2022-09-12T13:13:27;101291.91;;;24.33;64.22
31538;BME280;18147;51.952;6.146;2022-09-12T13:15:56;101271.69;;;24.19;63.34
31538;BME280;18147;51.952;6.146;2022-09-12T13:18:27;101271.78;;;24.34;63.65
31538;BME280;18147;51.952;6.146;2022-09-12T13:24:03;101264.38;;;24.90;62.69
31538;BME280;18147;51.952;6.146;2022-09-12T13:26:41;101258.25;;;24.88;60.24
31538;BME280;18147;51.952;6.146;2022-09-12T13:29:22;101262.50;;;24.59;61.23
31538;BME280;18147;51.952;6.146;2022-09-12T13:32:00;101259.03;;;24.73;62.64
31538;BME280;18147;51.952;6.146;2022-09-12T13:34:32;101255.94;;;24.76;61.44
31538;BME280;18147;51.952;6.146;2022-09-12T13:40:14;101253.06;;;25.01;61.92
31538;BME280;18147;51.952;6.146;2022-09-12T13:42:49;101253.53;;;24.50;61.23
31538;BME280;18147;51.952;6.146;2022-09-12T13:45:22;101249.44;;;24.77;62.84
31538;BME280;18147;51.952;6.146;2022-09-12T13:48:01;101248.72;;;24.61;60.74
31538;BME280;18147;51.952;6.146;2022-09-12T13:50:42;101241.63;;;24.74;60.19
31538;BME280;18147;51.952;6.146;2022-09-12T13:53:24;101238.50;;;24.54;62.24
31538;BME280;18147;51.952;6.146;2022-09-12T13:55:54;101227.63;;;24.77;61.88
31538;BME280;18147;51.952;6.146;2022-09-12T13:58:26;101215.59;;;24.64;61.76
31538;BME280;18147;51.952;6.146;2022-09-12T14:01:03;101222.22;;;24.69;62.45
31538;BME280;18147;51.952;6.146;2022-09-12T14:03:41;101229.75;;;24.36;59.95
31538;BME280;18147;51.952;6.146;2022-09-12T14:06:26;101215.06;;;24.45;61.33
31538;BME280;18147;51.952;6.146;2022-09-12T14:08:53;101217.88;;;24.83;61.71
31538;BME280;18147;51.952;6.146;2022-09-12T14:11:31;101206.59;;;24.86;58.03
31538;BME280;18147;51.952;6.146;2022-09-12T14:14:01;101206.59;;;24.86;58.65
31538;BME280;18147;51.952;6.146;2022-09-12T14:16:36;101192.97;;;24.86;59.29
31538;BME280;18147;51.952;6.146;2022-09-12T14:19:09;101199.00;;;24.73;57.75
31538;BME280;18147;51.952;6.146;2022-09-12T14:21:36;101205.03;;;24.92;55.66
31538;BME280;18147;51.952;6.146;2022-09-12T14:24:05;101201.06;;;24.71;57.25
31538;BME280;18147;51.952;6.146;2022-09-12T14:26:34;101202.66;;;24.66;58.36
31538;BME280;18147;51.952;6.146;2022-09-12T14:29:04;101195.16;;;24.60;59.39
31538;BME280;18147;51.952;6.146;2022-09-12T14:31:34;101195.63;;;24.71;60.55
31538;BME280;18147;51.952;6.146;2022-09-12T14:34:12;101196.50;;;24.33;58.65
31538;BME280;18147;51.952;6.146;2022-09-12T14:36:52;101193.34;;;24.52;61.34
31538;BME280;18147;51.952;6.146;2022-09-12T14:39:33;101190.91;;;24.65;59.05
31538;BME280;18147;51.952;6.146;2022-09-12T14:42:19;101188.69;;;24.84;59.92
31538;BME280;18147;51.952;6.146;2022-09-12T14:45:12;101195.19;;;24.83;57.23
31538;BME280;18147;51.952;6.146;2022-09-12T14:47:42;101192.78;;;24.88;59.51
31538;BME280;18147;51.952;6.146;2022-09-12T14:50:24;101182.84;;;24.72;57.94
31538;BME280;18147;51.952;6.146;2022-09-12T14:53:06;101186.41;;;24.72;58.36
31538;BME280;18147;51.952;6.146;2022-09-12T14:55:49;101181.56;;;24.83;59.59
31538;BME280;18147;51.952;6.146;2022-09-12T15:01:00;101186.28;;;24.66;56.74
31538;BME280;18147;51.952;6.146;2022-09-12T15:05:54;101187.56;;;24.78;56.24
31538;BME280;18147;51.952;6.146;2022-09-12T15:08:19;101179.19;;;24.79;58.75
31538;BME280;18147;51.952;6.146;2022-09-12T15:10:48;101179.38;;;24.78;59.49
31538;BME280;18147;51.952;6.146;2022-09-12T15:13:18;101181.97;;;24.71;59.42
31538;BME280;18147;51.952;6.146;2022-09-12T15:15:47;101165.13;;;24.68;59.04
31538;BME280;18147;51.952;6.146;2022-09-12T15:18:13;101167.47;;;24.48;60.54
31538;BME280;18147;51.952;6.146;2022-09-12T15:20:40;101160.38;;;24.39;59.67
31538;BME280;18147;51.952;6.146;2022-09-12T15:23:13;101155.59;;;24.64;59.19
31538;BME280;18147;51.952;6.146;2022-09-12T15:25:40;101154.56;;;24.42;58.34
31538;BME280;18147;51.952;6.146;2022-09-12T15:28:18;101148.44;;;24.40;61.53
31538;BME280;18147;51.952;6.146;2022-09-12T15:30:47;101144.19;;;24.37;59.13
31538;BME280;18147;51.952;6.146;2022-09-12T15:33:15;101138.81;;;24.21;61.09
31538;BME280;18147;51.952;6.146;2022-09-12T15:35:41;101132.06;;;24.09;60.10